CST,Max TemperatureF,Mean TemperatureF,Min TemperatureF,Max Dew PointF,MeanDew PointF,Min DewpointF,Max Humidity, Mean Humidity, Min Humidity, Max Sea Level PressureIn, Mean Sea Level PressureIn, Min Sea Level PressureIn, Max VisibilityMiles, Mean VisibilityMiles, Min VisibilityMiles, Max Wind SpeedMPH, Mean Wind SpeedMPH, Max Gust SpeedMPH,PrecipitationIn, CloudCover, Events, WindDirDegrees
2013-2-1,33,26,19,18,13,9,74,58,38,30.55,30.43,30.31,10,10,10,9,6,,0.00,1,,12
2013-2-2,50,37,24,36,27,18,87,68,53,30.28,30.21,30.15,10,10,10,10,3,,0.00,4,,206
2013-2-3,53,43,33,34,30,21,87,62,35,30.19,30.15,30.10,10,10,10,18,6,32,0.00,0,,261
2013-2-4,55,44,33,45,34,25,93,69,41,30.10,30.00,29.92,10,10,7,17,3,,0.00,5,Rain,171
2013-2-5,62,48,33,50,43,34,100,89,52,30.07,29.99,29.94,10,7,0,8,1,,0.00,2,Fog,266
2013-2-6,57,47,37,41,39,37,100,76,51,30.23,30.13,30.06,10,7,0,9,4,,0.00,4,Fog,54
2013-2-7,66,55,44,57,45,36,100,72,58,30.05,29.96,29.89,10,10,5,7,4,,0.00,5,Rain,131
2013-2-8,55,44,33,55,39,30,100,85,71,30.32,30.16,29.92,10,9,3,17,12,,0.00,7,Rain,5
2013-2-9,48,38,28,37,32,28,100,78,58,30.34,30.23,30.03,10,10,10,9,4,,0.00,3,,72
2013-2-10,60,56,51,57,47,37,100,76,54,30.03,29.90,29.76,10,10,5,15,10,26,0.00,6,Rain-Thunderstorm,151
2013-2-11,57,50,42,43,34,30,87,59,36,30.20,30.10,29.98,10,10,10,12,6,,0.00,3,,295
2013-2-12,51,43,35,43,37,34,100,78,50,30.17,30.04,29.81,10,10,8,9,2,,0.00,5,,51
2013-2-13,44,40,37,41,38,36,100,92,81,30.02,29.91,29.79,10,7,2,16,8,,0.00,7,Rain,320
2013-2-14,62,48,35,39,37,36,100,74,39,30.06,30.02,29.99,10,10,10,14,4,,0.00,0,,193
2013-2-15,53,45,35,37,33,27,81,64,41,30.22,30.15,30.07,10,10,10,15,6,,0.00,5,,337
2013-2-16,39,32,26,25,21,16,80,64,41,30.26,30.23,30.21,10,10,10,13,4,,0.00,4,,312
2013-2-17,55,42,30,30,25,21,80,56,33,30.26,30.18,30.07,10,10,10,12,3,,0.00,4,,155
2013-2-18,57,50,44,54,42,30,94,73,53,30.08,29.97,29.77,10,9,3,18,10,32,0.00,4,Rain,165
2013-2-19,48,40,33,37,29,19,81,63,43,30.27,30.16,29.99,10,10,10,17,11,,0.00,1,,295
2013-2-20,33,30,28,23,18,12,75,59,51,30.36,30.28,30.20,10,10,10,8,4,,0.00,4,Rain,25
2013-2-21,42,36,30,43,30,21,100,82,60,30.20,30.00,29.77,10,8,2,13,6,,0.00,8,Rain,66
2013-2-22,48,42,35,39,37,30,100,91,71,30.09,30.00,29.88,10,5,0,8,5,,0.00,7,Fog,254
2013-2-23,48,38,28,32,29,27,100,81,50,30.07,30.04,29.98,10,10,10,10,3,,0.00,1,,340
2013-2-24,55,40,26,32,29,25,100,69,41,30.11,30.03,29.93,10,10,8,10,3,,0.00,0,,71
2013-2-25,60,50,41,54,36,27,100,60,36,29.92,29.72,29.35,10,9,4,14,8,25,0.00,4,Rain,83
2013-2-26,53,47,41,52,41,34,94,84,76,29.82,29.51,29.34,10,10,8,23,12,23,0.00,7,Rain,219
2013-2-27,44,42,37,37,33,28,87,75,70,29.98,29.90,29.82,10,10,6,17,12,,0.00,8,Rain,259
2013-2-28,42,38,33,30,29,28,81,70,57,30.11,30.04,29.98,10,10,10,16,8,,0.00,7,,286